createdAt,value
2023-04-16T00:00:37.645Z,100660.41
2023-04-16T00:06:04.517Z,100652.59
2023-04-16T00:11:13.108Z,100651.84
2023-04-16T00:16:20.081Z,100658.75
2023-04-16T00:21:26.785Z,100667.50
2023-04-16T00:26:35.411Z,100667.41
2023-04-16T00:31:42.228Z,100668.25
2023-04-16T00:36:48.641Z,100685.66
2023-04-16T00:41:57.047Z,100677.19
2023-04-16T00:47:04.450Z,100678.00
2023-04-16T00:52:13.074Z,100688.38
2023-04-16T00:57:24.331Z,100682.41
2023-04-16T01:02:31.018Z,100684.16
2023-04-16T01:07:37.309Z,100685.88
2023-04-16T01:12:45.333Z,100693.72
2023-04-16T01:17:53.057Z,100686.84
2023-04-16T01:23:01.283Z,100682.47
2023-04-16T01:28:08.920Z,100680.84
2023-04-16T01:33:18.386Z,100682.50
2023-04-16T01:38:26.230Z,100683.44
2023-04-16T01:43:32.780Z,100686.06
2023-04-16T01:48:39.752Z,100679.22
2023-04-16T01:53:47.747Z,100680.09
2023-04-16T01:58:54.477Z,100686.28
2023-04-16T02:04:02.311Z,100689.69
2023-04-16T02:09:11.672Z,100692.34
2023-04-16T02:14:19.151Z,100694.09
2023-04-16T02:19:25.934Z,100694.88
2023-04-16T02:24:34.450Z,100700.88
2023-04-16T02:29:45.793Z,100706.94
2023-04-16T02:34:57.442Z,100708.69
2023-04-16T02:40:05.688Z,100705.22
2023-04-16T02:45:13.709Z,100719.22
2023-04-16T02:50:20.455Z,100723.50
2023-04-16T02:55:29.715Z,100721.75
2023-04-16T03:00:35.767Z,100730.44
2023-04-16T03:05:42.498Z,100736.44
2023-04-16T03:10:51.227Z,100741.59
2023-04-16T03:15:57.519Z,100745.03
2023-04-16T03:21:03.855Z,100751.06
2023-04-16T03:26:11.690Z,100753.66
2023-04-16T03:31:18.803Z,100760.63
2023-04-16T03:36:27.460Z,100755.41
2023-04-16T03:41:35.870Z,100763.25
2023-04-16T03:46:42.985Z,100757.19
2023-04-16T03:51:49.383Z,100760.59
2023-04-16T03:56:57.442Z,100759.75
2023-04-16T04:02:04.179Z,100765.75
2023-04-16T04:07:12.189Z,100776.16
2023-04-16T04:12:20.238Z,100775.34
2023-04-16T04:17:27.618Z,100779.66
2023-04-16T04:22:35.108Z,100784.00
2023-04-16T04:27:42.966Z,100784.06
2023-04-16T04:32:49.489Z,100788.47
2023-04-16T04:37:56.363Z,100791.91
2023-04-16T04:43:04.252Z,100791.00
2023-04-16T04:48:11.166Z,100796.16
2023-04-16T04:53:17.745Z,100803.16
2023-04-16T04:58:25.911Z,100804.03
2023-04-16T05:03:33.408Z,100807.47
2023-04-16T05:08:40.069Z,100811.84
2023-04-16T05:13:48.039Z,100817.03
2023-04-16T05:18:56.395Z,100819.59
2023-04-16T05:24:02.917Z,100824.00
2023-04-16T05:29:11.126Z,100835.19
2023-04-16T05:34:17.754Z,100834.25
2023-04-16T05:39:24.335Z,100839.44
2023-04-16T05:44:32.292Z,100842.00
2023-04-16T05:49:38.669Z,100844.56
2023-04-16T05:54:45.308Z,100851.47
2023-04-16T05:59:53.152Z,100862.75
2023-04-16T06:05:01.912Z,100856.66
2023-04-16T06:10:10.272Z,100855.69
2023-04-16T06:15:18.709Z,100870.31
2023-04-16T06:20:25.403Z,100865.06
2023-04-16T06:25:31.840Z,100875.41
2023-04-16T06:30:41.417Z,100876.16
2023-04-16T06:35:49.354Z,100876.25
2023-04-16T06:40:56.951Z,100876.88
2023-04-16T06:46:04.968Z,100881.06
2023-04-16T06:51:13.621Z,100886.19
2023-04-16T06:56:21.830Z,100879.38
2023-04-16T07:01:31.603Z,100880.97
2023-04-16T07:06:38.342Z,100879.09
2023-04-16T07:11:45.043Z,100874.75
2023-04-16T07:16:53.230Z,100877.22
2023-04-16T07:22:00.128Z,100876.31
2023-04-16T07:27:06.836Z,100882.22
2023-04-16T07:32:15.587Z,100889.09
2023-04-16T07:37:22.830Z,100897.59
2023-04-16T07:42:29.716Z,100903.63
2023-04-16T07:47:37.636Z,100904.41
2023-04-16T07:52:45.846Z,100906.00
2023-04-16T07:57:52.677Z,100913.84
2023-04-16T08:03:01.071Z,100920.75
2023-04-16T08:08:08.224Z,100917.09
2023-04-16T08:13:15.124Z,100921.34
2023-04-16T08:18:23.521Z,100930.09
2023-04-16T08:23:30.134Z,100942.97
2023-04-16T08:28:37.068Z,100948.06
2023-04-16T08:33:45.203Z,100958.41
2023-04-16T08:38:52.560Z,100966.13
2023-04-16T08:44:01.758Z,100959.13
2023-04-16T08:49:10.233Z,100971.28
2023-04-16T08:54:20.335Z,100981.56
2023-04-16T08:59:30.140Z,100977.13
2023-04-16T09:04:41.461Z,100971.97
2023-04-16T09:09:50.473Z,100984.06
2023-04-16T09:15:00.158Z,100991.16
2023-04-16T09:20:11.364Z,100993.66
2023-04-16T09:25:18.376Z,100999.81
2023-04-16T09:30:27.548Z,101003.53
2023-04-16T09:35:48.513Z,101004.38
2023-04-16T09:41:09.192Z,100999.78
2023-04-16T09:46:16.008Z,101006.03
2023-04-16T09:51:25.214Z,101016.38
2023-04-16T09:56:32.321Z,101015.56
2023-04-16T10:01:39.564Z,101019.69
2023-04-16T10:07:03.864Z,101025.94
2023-04-16T10:12:11.398Z,101028.31
2023-04-16T10:17:18.976Z,101029.03
2023-04-16T10:22:28.043Z,101016.66
2023-04-16T10:27:35.236Z,101024.22
2023-04-16T10:32:43.038Z,101032.72
2023-04-16T10:37:52.028Z,101037.78
2023-04-16T10:43:00.977Z,101038.78
2023-04-16T10:48:10.216Z,101043.94
2023-04-16T10:53:24.429Z,101056.97
2023-04-16T10:58:32.153Z,101063.97
2023-04-16T11:03:42.806Z,101065.63
2023-04-16T11:08:55.446Z,101059.56
2023-04-16T11:14:02.782Z,101066.44
2023-04-16T11:19:09.656Z,101068.97
2023-04-16T11:24:18.118Z,101072.66
2023-04-16T11:29:24.758Z,101061.94
2023-04-16T11:34:31.306Z,101061.88
2023-04-16T11:39:51.567Z,101067.81
2023-04-16T11:45:01.959Z,101074.72
2023-04-16T11:50:25.259Z,101075.59
2023-04-16T11:55:33.662Z,101072.88
2023-04-16T12:00:40.647Z,101070.16
2023-04-16T12:05:47.598Z,101075.59
2023-04-16T12:11:00.062Z,101082.34
2023-04-16T12:16:18.199Z,101081.31
2023-04-16T12:21:24.833Z,101076.00
2023-04-16T12:26:41.186Z,101070.81
2023-04-16T12:31:48.977Z,101068.97
2023-04-16T12:37:09.837Z,101059.91
2023-04-16T12:42:18.975Z,101062.97
2023-04-16T12:47:25.676Z,101054.94
2023-04-16T12:52:32.877Z,101064.56
2023-04-16T12:57:41.689Z,101061.03
2023-04-16T13:02:48.887Z,101070.47
2023-04-16T13:07:55.779Z,101068.28
2023-04-16T13:13:03.958Z,101066.78
2023-04-16T13:18:10.668Z,101072.56
2023-04-16T13:23:17.814Z,101074.34
2023-04-16T13:28:26.627Z,101069.88
2023-04-16T13:33:34.640Z,101061.25
2023-04-16T13:38:42.577Z,101065.06
2023-04-16T13:43:53.616Z,101069.19
2023-04-16T13:49:00.781Z,101075.34
2023-04-16T13:54:08.121Z,101078.66
2023-04-16T13:59:18.055Z,101084.03
2023-04-16T14:04:25.615Z,101083.47
2023-04-16T14:09:32.896Z,101085.97
2023-04-16T14:14:41.317Z,101089.84
2023-04-16T14:19:49.085Z,101093.44
2023-04-16T14:24:56.534Z,101087.31
2023-04-16T14:30:08.890Z,101101.94
2023-04-16T14:35:16.701Z,101099.16
2023-04-16T14:40:23.893Z,101096.25
2023-04-16T14:45:33.132Z,101090.09
2023-04-16T14:50:44.295Z,101091.38
2023-04-16T14:55:58.940Z,101089.72
2023-04-16T15:01:08.715Z,101083.47
2023-04-16T15:06:16.769Z,101090.34
2023-04-16T15:11:25.146Z,101099.97
2023-04-16T15:16:34.211Z,101095.53
2023-04-16T15:21:41.101Z,101092.22
2023-04-16T15:26:49.825Z,101101.84
2023-04-16T15:31:58.639Z,101104.50
2023-04-16T15:37:06.674Z,101097.56
2023-04-16T15:42:14.736Z,101108.09
2023-04-16T15:47:26.640Z,101112.53
2023-04-16T15:52:37.163Z,101124.00
2023-04-16T15:57:45.431Z,101124.09
2023-04-16T16:02:55.412Z,101118.25
2023-04-16T16:08:05.728Z,101130.56
2023-04-16T16:13:18.709Z,101137.59
2023-04-16T16:18:28.316Z,101142.16
2023-04-16T16:23:36.785Z,101146.63
2023-04-16T16:28:45.136Z,101155.47
2023-04-16T16:33:53.719Z,101155.63
2023-04-16T16:39:01.556Z,101157.50
2023-04-16T16:44:09.622Z,101158.59
2023-04-16T16:49:19.520Z,101160.44
2023-04-16T16:54:27.819Z,101162.31
2023-04-16T16:59:35.929Z,101174.59
2023-04-16T17:04:45.161Z,101175.69
2023-04-16T17:09:52.627Z,101174.91
2023-04-16T17:15:00.504Z,101177.63
2023-04-16T17:20:12.649Z,101188.09
2023-04-16T17:25:21.253Z,101185.63
2023-04-16T17:30:29.300Z,101188.38
2023-04-16T17:35:41.805Z,101191.94
2023-04-16T17:40:52.124Z,101206.91
2023-04-16T17:46:02.848Z,101210.38
2023-04-16T17:51:17.113Z,101216.53
2023-04-16T17:56:28.586Z,101225.28
2023-04-16T18:01:37.482Z,101227.09
2023-04-16T18:06:47.390Z,101231.41
2023-04-16T18:11:57.978Z,101244.41
2023-04-16T18:17:07.284Z,101242.69
2023-04-16T18:22:21.192Z,101247.06
2023-04-16T18:27:30.041Z,101249.78
2023-04-16T18:32:48.619Z,101252.47
2023-04-16T18:38:18.572Z,101249.03
2023-04-16T18:43:28.216Z,101254.31
2023-04-16T18:48:37.707Z,101251.72
2023-04-16T18:53:48.107Z,101252.66
2023-04-16T18:59:05.147Z,101253.56
2023-04-16T19:04:16.804Z,101254.44
2023-04-16T19:09:30.280Z,101259.72
2023-04-16T19:14:47.018Z,101263.25
2023-04-16T19:19:56.359Z,101256.34
2023-04-16T19:25:06.199Z,101251.97
2023-04-16T19:30:16.685Z,101265.09
2023-04-16T19:35:31.773Z,101262.50
2023-04-16T19:40:48.116Z,101254.72
2023-04-16T19:45:57.794Z,101252.97
2023-04-16T19:51:06.787Z,101252.19
2023-04-16T19:56:18.067Z,101254.81
2023-04-16T20:01:27.343Z,101246.19
2023-04-16T20:06:36.261Z,101253.19
2023-04-16T20:11:47.600Z,101254.03
2023-04-16T20:16:56.087Z,101252.28
2023-04-16T20:22:04.213Z,101250.53
2023-04-16T20:27:15.567Z,101252.31
2023-04-16T20:32:22.745Z,101254.91
2023-04-16T20:37:31.739Z,101253.16
2023-04-16T20:42:41.826Z,101253.16
2023-04-16T20:47:49.657Z,101260.13
2023-04-16T20:52:58.470Z,101258.38
2023-04-16T20:58:07.627Z,101261.00
2023-04-16T21:03:14.775Z,101262.78
2023-04-16T21:08:22.228Z,101261.03
2023-04-16T21:13:30.928Z,101261.94
2023-04-16T21:18:38.054Z,101255.00
2023-04-16T21:23:46.036Z,101260.13
2023-04-16T21:28:55.130Z,101260.16
2023-04-16T21:34:02.028Z,101259.28
2023-04-16T21:39:09.138Z,101258.41
2023-04-16T21:44:18.022Z,101261.88
2023-04-16T21:49:25.220Z,101256.72
2023-04-16T21:54:31.843Z,101256.72
2023-04-16T21:59:40.400Z,101259.31
2023-04-16T22:04:46.720Z,101253.31
2023-04-16T22:09:53.834Z,101262.84
2023-04-16T22:15:03.234Z,101261.97
2023-04-16T22:20:13.680Z,101268.06
2023-04-16T22:25:20.557Z,101262.03
2023-04-16T22:30:28.776Z,101264.63
2023-04-16T22:35:36.371Z,101268.09
2023-04-16T22:40:42.993Z,101262.91
2023-04-16T22:45:50.896Z,101260.31
2023-04-16T22:50:57.409Z,101264.63
2023-04-16T22:56:03.685Z,101262.03
2023-04-16T23:01:11.724Z,101262.91
2023-04-16T23:06:18.755Z,101255.09
2023-04-16T23:11:27.222Z,101252.50
2023-04-16T23:16:35.250Z,101247.28
2023-04-16T23:21:41.800Z,101252.53
2023-04-16T23:26:48.600Z,101250.78
2023-04-16T23:31:58.869Z,101256.00
2023-04-16T23:37:05.592Z,101259.47
2023-04-16T23:42:12.189Z,101256.88
2023-04-16T23:47:20.158Z,101257.75
2023-04-16T23:52:26.802Z,101245.63
2023-04-16T23:57:33.371Z,101248.22
